Ulysses, Nebraska
Current Conditions -  °F | °C
As of 8:15 AM on Sunday 23 Nov 2014 (Local Time) from KJYR Reporting Station
Overcast Overcast  
Wind Chill: 41°   Ceiling: 4000
Heat Index: 46°   Visibility: 10mi
Dew Point: 39°   Wind: 10mph
Humidity: 76%   Direction: 350°N
Pressure: 29.54"   Gusts: 23mph
Location:  41.07°N, 97.2°W
Report Text: KJYR 231415Z AUTO 35009G20KT 10SM OVC040 08/04 A2954 RMK AO2
Loading
Personal Weather Stations






























Interactive Weather Map New forecast layout! Learn more

10-Day Weather Forecast

Advertisements
Track Severe Weather on mobile